Kenaston, Canada
Current Conditions -  °F | °C
As of 7:00 AM on Thursday 30 Oct 2014 (Local Time) from CYXE Reporting Station
Overcast Overcast  
Wind Chill: 19°   Ceiling: 1100
Heat Index: 28°   Visibility: 15mi
Dew Point: 25°   Wind: 10mph
Humidity: 86%   Direction: 70°ENE
Pressure: 30.43"   Gusts: NA
Location:  51.5°N, 106.28°W
Report Text: CYXE 301300Z 07009KT 15SM OVC011 M02/M04 A3043 RMK SC8 SLP333
Loading
Personal Weather Stations






























Interactive Weather Map
Tropical Storm Tracking
New forecast layout! Learn more

10-Day Weather Forecast

Advertisements
Track Severe Weather on mobile